Terminal Aerodrome Forecast
Issued by NWS Newport/Morehead City, NC

Home | Current Version | Previous Version | Text Only | Print | Product List | Glossary On
Versions: 1 2 3 4 5 6 7 8 9 10 11 12
000
FTUS42 KMHX 272324
TAFEWN
TAF
KEWN 272324Z 2800/2824 14005KT P6SM SKC
     FM280900 VRB03KT 4SM BR SCT007
     FM281300 07006KT P6SM SCT050 BKN200
     FM281700 10008KT P6SM BKN050=

USA.gov is the U.S. government's official web portal to all federal, state and local government web resources and services.